BAH weather

Bahrain International Airport
Manama, Muharraq Governorate, Bahrain

Public forecast

Using degrees Celsius for public forecast. Weather courtesy of forecast.io.

METAR (pilot weather report)

Retrieved 2019/05/26 04:30 UTC (0 seconds ago):

OBBI 260430Z 27005KT 240V310 CAVOK 33/21 Q1007 NOSIG

TAF (pilot weather forecast)

Forecast is more than 12 hours old.

Retrieved 2019/05/25 00:23 UTC (1 day ago):

TAF OBBI 252300Z 2600/2706 VRB05KT CAVOK